Welcome to our new website - Welkom op onze vernieuwde website - Bienvenue sur notre nouveau site web - Willkommen auf unserer neuen Website
Check our progress frequently. Prüfen Sie unsere Fortschritte regelmäßig. Consultez notre progression fréquemment. Komt u straks nog eens terug


Hej. Vi har købt ny vejrstation, og er ved at bygge en helt ny vejrside.
Kom snart tilbage og følg udviklingen.
Du kan også komme med kommentarer eller evt. ønsker via "Kontakt" i bunden.



Webcam more information Webcam


Rain radar more information rain snow radar


Visit our other weather sites:

Template documentation
and downloads

And another site



Nearby METAR Reports

   
EBBR - Brussels International Airport, Belgium
Distance from station: W 14 km
Updated: 14-11-2018 10:50
Clear  
Clear  
   Wind: South 9.3 km/h
Wind: South 9.3 km/h
Temperature: 10°C
Wind Chill: 9°C
Dew Point: 8°C
Humidity: 88%
Barometer: 1028 hPa
Visibility: More than 10 km
Cloud details: Clear
EBBR 140950Z 18005KT 150V210 CAVOK 10/08 Q1028 NOSIG
EBBE - Beauvechain (Bevekom), Belgium
Distance from station: SSE 17 km
Updated: 14-11-2018 10:25
Partly Cloudy  
Partly Cloudy  
   Wind: South 9.3 km/h
Wind: South 9.3 km/h
Temperature: 9°C
Wind Chill: 8°C
Dew Point: 6°C
Humidity: 82%
Barometer: 1028 hPa
Clouds: Partly Cloudy
Visibility: More than 10 km
Cloud details: Partly Cloudy 24000 ft
EBBE 140925Z 18005KT 9999 SCT240 09/06 Q1028 BLU BLU
EBDT - Schaffen, Belgium
Distance from station: ENE 29 km
Updated: 14-11-2018 10:25
Clear  
Clear  
   Wind: SSE 7.4 km/h
Wind: SSE 7.4 km/h
Temperature: 9°C
Wind Chill: 8°C
Dew Point: 7°C
Humidity: 87%
Barometer: 1028 hPa
Clouds: Clear
Visibility: More than 10 km
Cloud details: Clear
EBDT 140925Z AUTO 16004KT 9999 NCD 09/07 Q1028 BLU
EBAW - Antwerp/Deurne, Belgium
Distance from station: NNW 38 km
Updated: 14-11-2018 10:50
Clear  
Clear  
   Wind: South 9.3 km/h
Wind: South 9.3 km/h
Temperature: 10°C
Wind Chill: 9°C
Dew Point: 9°C
Humidity: 94%
Barometer: 1028 hPa
Visibility: More than 10 km
Cloud details: Clear
EBAW 140950Z 19005KT 160V220 CAVOK 10/09 Q1028 NOSIG
EBCI - Charleroi/Gosselies, Belgium
Distance from station: SSW 51 km
Updated: 14-11-2018 10:50
Clear  
Clear  
   Wind: South 13 km/h
Wind: South 13 km/h
Temperature: 9°C
Wind Chill: 7°C
Dew Point: 7°C
Humidity: 87%
Barometer: 1028 hPa
Visibility: More than 10 km
Cloud details: Clear
EBCI 140950Z 17007KT 140V210 CAVOK 09/07 Q1028 NOSIG
EBLG - Bierset/Liege, Belgium
Distance from station: ESE 60 km
Updated: 14-11-2018 10:50
Clear  
Clear  
   Wind: SE 13 km/h
Wind: SE 13 km/h
Temperature: 10°C
Wind Chill: 8°C
Dew Point: 5°C
Humidity: 71%
Barometer: 1028 hPa
Visibility: More than 10 km
Cloud details: Clear
EBLG 140950Z 14007KT CAVOK 10/05 Q1028 NOSIG

Script developed by  Saratoga-weather.org Adapted for the template by  Weerstation Leuven

You find our weather info also at:

European Weather Network

Weather Underground

European Weather Network

Equipment we use:

Weather-station
Davis VP2

Weather-program
Weather Display

Davis VP2

Weather Display



Hej. Vi har købt ny vejrstation, og er ved at bygge en helt ny vejrside.
Kom snart tilbage og følg udviklingen.
Du kan også komme med kommentarer eller evt. ønsker via "Kontakt" i bunden.